»·PEaware :: N361AS KLAX-KSAN

N361AS :: KLAX-KSAN

FLIGHT INFORMATION

Flight Status: Arrived
Operator: Privately registered:
United States
More flights under this callsign
Pilot: Michael N. (17635)
Aircraft: BEECH AIRCRAFT DEBONAIR BONANZA
(BE33)
More flights by this aircraft type
Origin: KLAX Los Angeles Intl
United States
Destination: KSAN San Diego Intl-Lindbergh
United States
More flights between these airports :: More routes between these airports
Route: +
File this flight plan on PilotEdge
Remarks: CAT11
Altitude:
(Current/Filed)
0ft
Speed:
(Current/Filed)
0kts
Departed: 11-Jan-18 08:51 PM
Arrived: 11-Jan-18 09:42 PM
Distance/Time
Traveled:
95nm/0:50
Distance/Time
To Go:
Arrived

Flight Plot

Page will automatically refresh every two minutes.


Map Options




Map Legend


Flown Route
Filed Route
Departure Airport
Arrival Airport
Navaid (VOR, NDB)
Fix

Horizontal Profiles

Position Reports

Time Latitude Longitude Heading Altitude Ground
Speed
11-Jan-18 20:46 33.934122 -118.387225 353 128ft 0kts
11-Jan-18 20:47 33.934122 -118.387225 353 128ft 0kts
11-Jan-18 20:48 33.934122 -118.387225 353 128ft 0kts
11-Jan-18 20:49 33.934713 -118.387304 349 128ft 0kts
11-Jan-18 20:50 33.934713 -118.387304 349 128ft 0kts
11-Jan-18 20:51 33.935283 -118.387894 351 128ft 7kts
11-Jan-18 20:52 33.935740 -118.386754 88 128ft 3kts
11-Jan-18 20:53 33.936050 -118.384072 86 128ft 11kts
11-Jan-18 20:54 33.936570 -118.380271 247 128ft 5kts
11-Jan-18 20:55 33.936589 -118.382858 355 128ft 0kts
11-Jan-18 20:56 33.936848 -118.382869 356 128ft 6kts
11-Jan-18 20:57 33.936420 -118.392559 263 170ft 80kts
11-Jan-18 20:58 33.934583 -118.420333 264 1107ft 86kts
11-Jan-18 20:59 33.933249 -118.443469 266 1794ft 87kts
11-Jan-18 21:00 33.931935 -118.481613 267 2545ft 101kts
11-Jan-18 21:01 33.922712 -118.514389 198 3174ft 113kts
11-Jan-18 21:02 33.897095 -118.511374 173 3766ft 112kts
11-Jan-18 21:03 33.861107 -118.505304 173 4576ft 111kts
11-Jan-18 21:04 33.830554 -118.499832 173 5286ft 111kts
11-Jan-18 21:05 33.805079 -118.494954 174 5881ft 111kts
11-Jan-18 21:06 33.774439 -118.488833 174 6544ft 111kts
11-Jan-18 21:07 33.743829 -118.482603 174 7142ft 111kts
11-Jan-18 21:08 33.712966 -118.476459 174 7685ft 111kts
11-Jan-18 21:09 33.675965 -118.469598 174 7492ft 146kts
11-Jan-18 21:10 33.635945 -118.462739 174 7508ft 146kts
11-Jan-18 21:11 33.602006 -118.441617 107 7525ft 156kts
11-Jan-18 21:12 33.616453 -118.393499 74 7520ft 160kts
11-Jan-18 21:13 33.631525 -118.342775 70 7503ft 161kts
11-Jan-18 21:14 33.646930 -118.292115 70 7494ft 162kts
11-Jan-18 21:15 33.661963 -118.241033 79 7487ft 161kts
11-Jan-18 21:16 33.662042 -118.187304 92 7488ft 160kts
11-Jan-18 21:17 33.660879 -118.133734 93 7480ft 161kts
11-Jan-18 21:18 33.648160 -118.083917 120 7476ft 158kts
11-Jan-18 21:19 33.627680 -118.037160 120 7476ft 158kts
11-Jan-18 21:20 33.607128 -117.990534 120 7465ft 158kts
11-Jan-18 21:21 33.584805 -117.945372 128 7467ft 157kts
11-Jan-18 21:22 33.559031 -117.902885 128 7466ft 157kts
11-Jan-18 21:23 33.533262 -117.860669 129 7467ft 157kts
11-Jan-18 21:24 33.507253 -117.818520 129 7466ft 156kts
11-Jan-18 21:25 33.481189 -117.776799 129 7465ft 156kts
11-Jan-18 21:26 33.455056 -117.735198 129 7463ft 156kts
11-Jan-18 21:27 33.428725 -117.693556 129 7461ft 156kts
11-Jan-18 21:28 33.402315 -117.652232 129 7457ft 156kts
11-Jan-18 21:29 33.371302 -117.616433 142 7451ft 154kts
11-Jan-18 21:30 33.338573 -117.583267 142 7451ft 154kts
11-Jan-18 21:31 33.305676 -117.550132 142 7447ft 154kts
11-Jan-18 21:32 33.272748 -117.517513 142 7446ft 154kts
11-Jan-18 21:33 33.237965 -117.483467 142 7028ft 170kts
11-Jan-18 21:34 33.200480 -117.447335 142 6436ft 175kts
11-Jan-18 21:35 33.162297 -117.411114 142 5835ft 175kts
11-Jan-18 21:36 33.121359 -117.379926 152 5238ft 175kts
11-Jan-18 21:37 33.077974 -117.352978 153 4637ft 175kts
11-Jan-18 21:38 33.034732 -117.326419 153 4034ft 172kts
11-Jan-18 21:39 32.990844 -117.303210 159 3479ft 170kts
11-Jan-18 21:40 32.948120 -117.287612 169 3445ft 154kts
11-Jan-18 21:41 32.907328 -117.274448 164 3449ft 150kts
11-Jan-18 21:42 32.867823 -117.260458 163 3449ft 150kts
11-Jan-18 21:43 32.829285 -117.240625 154 3262ft 151kts
11-Jan-18 21:44 32.789870 -117.217614 153 2536ft 160kts
11-Jan-18 21:45 32.752036 -117.191061 109 1510ft 150kts
11-Jan-18 21:46 32.739362 -117.150409 138 1006ft 109kts
11-Jan-18 21:47 32.728238 -117.168281 289 316ft 71kts
11-Jan-18 21:48 32.732730 -117.186242 281 17ft 20kts
11-Jan-18 21:49 32.733667 -117.186443 106 17ft 3kts
11-Jan-18 21:50 32.732209 -117.179535 60 17ft 17kts
11-Jan-18 21:51 32.732761 -117.178710 51 17ft 0kts
11-Jan-18 21:52 32.732761 -117.178710 51 17ft 0kts
11-Jan-18 21:53 32.732761 -117.178710 51 17ft 0kts
11-Jan-18 21:54 32.732761 -117.178710 51 17ft 0kts

Navigation Log

Ident Type
1. KLAX Airport
2. KSAN Airport